createdAt,value
2023-01-30T00:00:08.473Z,70.20
2023-01-30T00:02:35.674Z,70.30
2023-01-30T00:05:02.890Z,70.20
2023-01-30T00:07:29.940Z,70.30
2023-01-30T00:09:57.054Z,70.30
2023-01-30T00:12:24.619Z,70.20
2023-01-30T00:14:51.838Z,70.30
2023-01-30T00:17:18.861Z,70.40
2023-01-30T00:19:45.867Z,70.40
2023-01-30T00:22:12.981Z,70.40
2023-01-30T00:24:40.189Z,70.50
2023-01-30T00:27:07.538Z,70.50
2023-01-30T00:29:34.537Z,70.50
2023-01-30T00:32:01.711Z,70.50
2023-01-30T00:34:28.761Z,70.50
2023-01-30T00:39:42.830Z,70.50
2023-01-30T00:42:29.081Z,70.50
2023-01-30T00:45:14.767Z,70.50
2023-01-30T00:47:41.919Z,70.50
2023-01-30T00:50:09.896Z,70.50
2023-01-30T00:52:36.965Z,70.60
2023-01-30T00:55:04.396Z,70.60
2023-01-30T00:57:31.457Z,70.50
2023-01-30T00:59:58.514Z,70.50
2023-01-30T01:02:25.582Z,70.50
2023-01-30T01:04:52.651Z,70.60
2023-01-30T01:07:21.256Z,70.80
2023-01-30T01:09:48.531Z,70.80
2023-01-30T01:12:15.549Z,70.80
2023-01-30T01:14:42.621Z,70.80
2023-01-30T01:17:10.323Z,70.90
2023-01-30T01:19:37.433Z,70.80
2023-01-30T01:22:04.436Z,70.80
2023-01-30T01:24:31.616Z,70.90
2023-01-30T01:26:59.234Z,70.90
2023-01-30T01:29:26.240Z,70.90
2023-01-30T01:31:53.323Z,70.90
2023-01-30T01:34:20.487Z,70.90
2023-01-30T01:36:53.707Z,70.80
2023-01-30T01:39:21.896Z,70.50
2023-01-30T01:41:48.944Z,70.60
2023-01-30T01:44:17.446Z,70.50
2023-01-30T01:46:58.495Z,70.50
2023-01-30T01:49:34.820Z,70.50
2023-01-30T01:52:16.109Z,70.50
2023-01-30T01:54:59.998Z,70.50
2023-01-30T01:57:38.912Z,70.50
2023-01-30T02:00:14.831Z,70.50
2023-01-30T02:02:50.717Z,70.50
2023-01-30T02:05:19.712Z,70.50
2023-01-30T02:08:09.333Z,70.50
2023-01-30T02:11:03.605Z,70.60
2023-01-30T02:13:32.142Z,70.60
2023-01-30T02:16:02.234Z,70.60
2023-01-30T02:18:30.946Z,70.60
2023-01-30T02:21:38.466Z,70.60
2023-01-30T02:24:43.074Z,70.60
2023-01-30T02:27:31.589Z,70.60
2023-01-30T02:30:15.207Z,70.60
2023-01-30T02:33:19.249Z,70.60
2023-01-30T02:36:18.172Z,70.50
2023-01-30T02:39:20.428Z,70.50
2023-01-30T02:42:05.304Z,70.50
2023-01-30T02:44:45.931Z,70.50
2023-01-30T02:47:25.220Z,70.50
2023-01-30T02:50:00.804Z,70.50
2023-01-30T02:52:29.512Z,70.50
2023-01-30T02:54:56.591Z,70.50
2023-01-30T02:57:25.709Z,70.60
2023-01-30T02:59:58.810Z,70.70
2023-01-30T03:03:10.999Z,70.70
2023-01-30T03:06:04.685Z,70.80
2023-01-30T03:08:54.298Z,70.80
2023-01-30T03:11:32.067Z,70.80
2023-01-30T03:14:20.992Z,70.80
2023-01-30T03:19:23.523Z,71.10
2023-01-30T03:21:50.581Z,71.10
2023-01-30T03:24:18.024Z,71.30
2023-01-30T03:27:11.945Z,71.30
2023-01-30T03:29:40.202Z,71.40
2023-01-30T03:32:07.897Z,71.50
2023-01-30T03:34:35.091Z,71.50
2023-01-30T03:37:02.871Z,71.50
2023-01-30T03:39:30.160Z,71.50
2023-01-30T03:41:57.407Z,71.50
2023-01-30T03:44:24.415Z,71.50
2023-01-30T03:46:51.573Z,71.50
2023-01-30T03:49:18.643Z,71.50
2023-01-30T03:51:45.727Z,71.40
2023-01-30T03:54:12.849Z,71.50
2023-01-30T03:56:39.915Z,71.50
2023-01-30T03:59:07.010Z,71.50
2023-01-30T04:01:34.103Z,71.50
2023-01-30T04:04:01.140Z,71.50
2023-01-30T04:06:28.280Z,71.40
2023-01-30T04:08:55.399Z,71.40
2023-01-30T04:11:22.637Z,71.30
2023-01-30T04:13:49.676Z,71.30
2023-01-30T04:16:23.762Z,71.30
2023-01-30T04:18:51.229Z,71.30
2023-01-30T04:21:19.604Z,71.30
2023-01-30T04:23:46.930Z,71.40
2023-01-30T04:26:14.200Z,71.40
2023-01-30T04:28:41.882Z,71.40
2023-01-30T04:31:09.152Z,71.40
2023-01-30T04:33:36.693Z,71.50
2023-01-30T04:36:05.309Z,71.50
2023-01-30T04:38:33.866Z,71.50
2023-01-30T04:41:01.801Z,71.50
2023-01-30T04:43:30.338Z,71.60
2023-01-30T04:45:58.308Z,71.60
2023-01-30T04:48:26.196Z,71.50
2023-01-30T04:50:56.273Z,71.50
2023-01-30T04:53:24.775Z,71.60
2023-01-30T04:55:51.954Z,71.60
2023-01-30T04:58:22.112Z,71.60
2023-01-30T05:00:49.827Z,71.60
2023-01-30T05:03:17.488Z,71.60
2023-01-30T05:05:47.741Z,71.60
2023-01-30T05:08:16.455Z,71.70
2023-01-30T05:10:43.601Z,71.70
2023-01-30T05:13:10.820Z,71.70
2023-01-30T05:15:40.198Z,71.70
2023-01-30T05:18:07.557Z,71.70
2023-01-30T05:20:34.652Z,71.70
2023-01-30T05:23:01.696Z,71.70
2023-01-30T05:25:29.017Z,71.80
2023-01-30T05:27:57.248Z,71.70
2023-01-30T05:30:24.412Z,71.70
2023-01-30T05:32:51.510Z,71.70
2023-01-30T05:35:18.766Z,71.70
2023-01-30T05:37:51.544Z,71.60
2023-01-30T05:40:19.005Z,71.60
2023-01-30T05:42:46.197Z,71.60
2023-01-30T05:45:13.413Z,71.60
2023-01-30T05:47:40.491Z,71.70
2023-01-30T05:50:08.092Z,71.60
2023-01-30T05:52:35.171Z,71.60
2023-01-30T05:55:02.255Z,71.60
2023-01-30T05:57:29.341Z,71.70
2023-01-30T05:59:56.398Z,71.60
2023-01-30T06:02:23.492Z,71.70
2023-01-30T06:04:50.550Z,71.70
2023-01-30T06:07:17.608Z,71.70
2023-01-30T06:09:44.613Z,71.70
2023-01-30T06:12:11.737Z,71.70
2023-01-30T06:14:38.864Z,71.70
2023-01-30T06:17:05.994Z,71.80
2023-01-30T06:19:34.232Z,71.90
2023-01-30T06:22:03.098Z,72.00
2023-01-30T06:24:30.194Z,71.90
2023-01-30T06:26:59.244Z,71.90
2023-01-30T06:29:26.359Z,71.80
2023-01-30T06:31:53.386Z,71.80
2023-01-30T06:34:20.468Z,71.70
2023-01-30T06:36:47.482Z,71.70
2023-01-30T06:39:14.487Z,71.70
2023-01-30T06:41:41.503Z,71.60
2023-01-30T06:44:09.859Z,71.50
2023-01-30T06:46:36.905Z,71.50
2023-01-30T06:49:04.000Z,71.50
2023-01-30T06:51:32.531Z,71.50
2023-01-30T06:53:59.569Z,71.50
2023-01-30T06:56:26.694Z,71.50
2023-01-30T06:58:53.732Z,71.40
2023-01-30T07:01:21.398Z,71.40
2023-01-30T07:03:48.860Z,71.30
2023-01-30T07:06:15.936Z,71.30
2023-01-30T07:08:44.423Z,71.40
2023-01-30T07:11:11.864Z,71.40
2023-01-30T07:13:38.959Z,71.40
2023-01-30T07:16:06.667Z,71.30
2023-01-30T07:18:33.721Z,71.40
2023-01-30T07:21:00.779Z,71.40
2023-01-30T07:23:27.858Z,71.50
2023-01-30T07:25:55.573Z,71.50
2023-01-30T07:28:22.646Z,71.50
2023-01-30T07:30:52.836Z,71.50
2023-01-30T07:33:20.942Z,71.30
2023-01-30T07:35:48.161Z,71.30
2023-01-30T07:38:15.228Z,71.30
2023-01-30T07:40:42.315Z,71.40
2023-01-30T07:43:13.114Z,71.30
2023-01-30T07:45:46.551Z,71.30
2023-01-30T07:48:17.036Z,71.20
2023-01-30T07:50:44.714Z,71.10
2023-01-30T07:53:16.220Z,71.10
2023-01-30T07:55:43.564Z,71.20
2023-01-30T07:58:16.785Z,70.90
2023-01-30T08:00:44.761Z,71.10
2023-01-30T08:03:16.822Z,71.10
2023-01-30T08:05:47.219Z,71.10
2023-01-30T08:08:14.909Z,71.10
2023-01-30T08:10:43.121Z,71.20
2023-01-30T08:13:10.234Z,71.20
2023-01-30T08:15:37.364Z,71.20
2023-01-30T08:18:04.507Z,71.20
2023-01-30T08:20:31.799Z,71.20
2023-01-30T08:23:00.733Z,71.20
2023-01-30T08:25:28.996Z,71.00
2023-01-30T08:27:56.323Z,71.20
2023-01-30T08:30:23.938Z,71.20
2023-01-30T08:32:51.204Z,71.40
2023-01-30T08:35:18.528Z,71.50
2023-01-30T08:37:45.568Z,71.20
2023-01-30T08:40:13.903Z,70.60
2023-01-30T08:42:44.111Z,71.00
2023-01-30T08:45:13.235Z,70.70
2023-01-30T08:47:40.260Z,70.40
2023-01-30T08:50:07.908Z,70.30
2023-01-30T08:52:35.068Z,69.90
2023-01-30T08:55:02.108Z,70.20
2023-01-30T08:57:29.133Z,70.00
2023-01-30T08:59:56.220Z,69.80
2023-01-30T09:02:23.244Z,69.00
2023-01-30T09:04:50.363Z,68.80
2023-01-30T09:07:17.589Z,67.90
2023-01-30T09:09:44.655Z,68.20
2023-01-30T09:12:11.683Z,67.30
2023-01-30T09:14:38.711Z,66.70
2023-01-30T09:17:06.128Z,66.60
2023-01-30T09:19:33.324Z,67.50
2023-01-30T09:22:00.384Z,67.40
2023-01-30T09:24:27.949Z,67.40
2023-01-30T09:26:57.722Z,67.30
2023-01-30T09:29:26.345Z,67.00
2023-01-30T09:31:54.456Z,66.70
2023-01-30T09:34:21.567Z,67.10
2023-01-30T09:36:48.651Z,66.70
2023-01-30T09:39:15.747Z,67.50
2023-01-30T09:42:15.730Z,66.70
2023-01-30T09:45:04.477Z,67.00
2023-01-30T09:47:38.733Z,66.90
2023-01-30T09:50:29.868Z,66.90
2023-01-30T09:53:03.438Z,66.70
2023-01-30T09:55:33.413Z,66.00
2023-01-30T09:58:01.296Z,66.30
2023-01-30T10:00:42.380Z,66.40
2023-01-30T10:03:15.117Z,66.80
2023-01-30T10:06:07.229Z,66.70
2023-01-30T10:09:08.084Z,66.30
2023-01-30T10:12:05.216Z,65.90
2023-01-30T10:14:55.053Z,66.20
2023-01-30T10:17:59.121Z,66.30
2023-01-30T10:20:32.642Z,65.60
2023-01-30T10:23:18.119Z,64.50
2023-01-30T10:25:53.322Z,65.00
2023-01-30T10:28:52.433Z,66.00
2023-01-30T10:31:35.289Z,64.70
2023-01-30T10:34:12.723Z,65.70
2023-01-30T10:37:00.414Z,65.50
2023-01-30T10:40:06.341Z,66.40
2023-01-30T10:43:24.063Z,66.10
2023-01-30T10:46:30.840Z,65.90
2023-01-30T10:49:20.198Z,66.10
2023-01-30T10:52:17.747Z,66.00
2023-01-30T10:55:37.166Z,66.40
2023-01-30T10:58:34.959Z,66.30
2023-01-30T11:01:21.201Z,66.20
2023-01-30T11:04:02.566Z,66.50
2023-01-30T11:06:31.484Z,66.20
2023-01-30T11:08:58.534Z,66.10
2023-01-30T11:11:30.374Z,66.00
2023-01-30T11:14:09.753Z,66.10
2023-01-30T11:16:55.661Z,65.40
2023-01-30T11:19:34.720Z,65.00
2023-01-30T11:22:06.249Z,64.20
2023-01-30T11:24:45.402Z,64.60
2023-01-30T11:27:34.797Z,65.10
2023-01-30T11:30:14.615Z,64.40
2023-01-30T11:32:48.828Z,65.10
2023-01-30T11:35:15.877Z,64.40
2023-01-30T11:37:45.331Z,63.80
2023-01-30T11:40:18.882Z,63.10
2023-01-30T11:43:06.609Z,62.90
2023-01-30T11:45:41.663Z,62.30
2023-01-30T11:49:00.621Z,62.70
2023-01-30T11:51:11.119Z,61.90
2023-01-30T11:53:47.589Z,62.00
2023-01-30T11:56:22.941Z,62.20
2023-01-30T11:58:59.097Z,62.70
2023-01-30T12:01:35.850Z,62.50
2023-01-30T12:04:09.564Z,62.80
2023-01-30T12:06:41.290Z,62.40
2023-01-30T12:09:30.498Z,63.20
2023-01-30T12:11:57.534Z,61.80
2023-01-30T12:14:46.228Z,62.50
2023-01-30T12:17:48.493Z,63.00
2023-01-30T12:20:30.162Z,63.80
2023-01-30T12:23:15.009Z,63.10
2023-01-30T12:26:01.057Z,63.10
2023-01-30T12:28:40.068Z,63.30
2023-01-30T12:31:19.414Z,63.50
2023-01-30T12:33:48.004Z,63.40
2023-01-30T12:36:48.264Z,64.00
2023-01-30T12:39:31.090Z,63.30
2023-01-30T12:42:25.126Z,64.20
2023-01-30T12:45:20.657Z,64.10
2023-01-30T12:48:22.990Z,64.30
2023-01-30T12:51:05.946Z,64.40
2023-01-30T12:53:47.886Z,64.50
2023-01-30T12:56:25.052Z,65.00
2023-01-30T12:59:17.314Z,64.50
2023-01-30T13:02:04.948Z,65.10
2023-01-30T13:05:04.090Z,64.90
2023-01-30T13:07:53.444Z,65.30
2023-01-30T13:10:58.557Z,65.50
2023-01-30T13:13:53.159Z,65.50
2023-01-30T13:16:48.876Z,65.90
2023-01-30T13:19:25.507Z,66.00
2023-01-30T13:22:12.583Z,66.20
2023-01-30T13:25:28.872Z,66.30
2023-01-30T13:28:00.014Z,66.50
2023-01-30T13:30:29.852Z,66.50
2023-01-30T13:33:09.834Z,66.50
2023-01-30T13:35:49.683Z,66.70
2023-01-30T13:38:25.052Z,66.70
2023-01-30T13:40:57.595Z,66.60
2023-01-30T13:43:44.451Z,66.80
2023-01-30T13:46:18.675Z,66.90
2023-01-30T13:48:54.643Z,66.90
2023-01-30T13:51:51.643Z,67.00
2023-01-30T13:54:46.673Z,67.00
2023-01-30T13:57:46.592Z,67.00
2023-01-30T14:00:35.625Z,67.20
2023-01-30T14:03:09.130Z,67.20
2023-01-30T14:05:52.037Z,67.30
2023-01-30T14:08:47.018Z,67.30
2023-01-30T14:11:37.614Z,67.40
2023-01-30T14:14:33.606Z,67.60
2023-01-30T14:17:17.503Z,68.00
2023-01-30T14:19:54.037Z,68.30
2023-01-30T14:22:29.184Z,68.30
2023-01-30T14:25:25.460Z,68.40
2023-01-30T14:27:56.057Z,69.20
2023-01-30T14:30:38.845Z,69.20
2023-01-30T14:33:26.142Z,69.40
2023-01-30T14:36:02.179Z,70.30
2023-01-30T14:38:34.146Z,70.00
2023-01-30T14:41:01.173Z,70.20
2023-01-30T14:43:41.860Z,70.40
2023-01-30T14:46:17.729Z,70.60
2023-01-30T14:49:04.612Z,70.80
2023-01-30T14:51:40.536Z,71.00
2023-01-30T14:54:30.257Z,70.80
2023-01-30T14:57:06.047Z,71.00
2023-01-30T14:59:39.048Z,70.90
2023-01-30T15:02:09.622Z,70.90
2023-01-30T15:05:08.572Z,70.90
2023-01-30T15:08:06.907Z,70.80
2023-01-30T15:11:04.887Z,70.60
2023-01-30T15:14:12.654Z,70.50
2023-01-30T15:16:48.611Z,70.30
2023-01-30T15:19:18.416Z,70.40
2023-01-30T15:22:16.311Z,70.30
2023-01-30T15:25:08.284Z,70.30
2023-01-30T15:28:01.980Z,70.10
2023-01-30T15:31:00.625Z,69.80
2023-01-30T15:33:31.549Z,69.70
2023-01-30T15:36:00.566Z,69.60
2023-01-30T15:38:30.615Z,69.70
2023-01-30T15:41:07.094Z,69.60
2023-01-30T15:44:30.938Z,69.50
2023-01-30T15:47:28.490Z,69.20
2023-01-30T15:50:08.349Z,69.20
2023-01-30T15:52:56.639Z,69.20
2023-01-30T15:55:31.662Z,69.00
2023-01-30T15:58:05.428Z,69.10
2023-01-30T16:00:37.169Z,69.10
2023-01-30T16:03:10.482Z,68.90
2023-01-30T16:05:37.744Z,69.10
2023-01-30T16:08:19.374Z,69.10
2023-01-30T16:10:47.892Z,69.10
2023-01-30T16:13:14.892Z,69.10
2023-01-30T16:15:59.865Z,69.00
2023-01-30T16:18:46.883Z,69.10
2023-01-30T16:21:47.510Z,69.00
2023-01-30T16:24:29.851Z,69.10
2023-01-30T16:27:02.930Z,69.10
2023-01-30T16:29:35.219Z,69.20
2023-01-30T16:32:02.525Z,69.30
2023-01-30T16:34:35.252Z,69.40
2023-01-30T16:37:24.212Z,69.50
2023-01-30T16:40:11.506Z,69.60
2023-01-30T16:42:38.892Z,69.70
2023-01-30T16:45:34.515Z,69.70
2023-01-30T16:48:36.945Z,69.80
2023-01-30T16:51:18.141Z,69.60
2023-01-30T16:54:01.794Z,69.60
2023-01-30T16:56:32.257Z,69.60
2023-01-30T16:59:01.817Z,69.60
2023-01-30T17:01:38.855Z,69.80
2023-01-30T17:04:20.842Z,69.80
2023-01-30T17:07:01.188Z,69.80
2023-01-30T17:09:47.296Z,69.90
2023-01-30T17:12:37.326Z,69.80
2023-01-30T17:15:11.928Z,69.80
2023-01-30T17:17:42.659Z,69.90
2023-01-30T17:20:12.223Z,69.80
2023-01-30T17:22:43.051Z,69.90
2023-01-30T17:25:44.404Z,70.00
2023-01-30T17:28:21.372Z,70.00
2023-01-30T17:30:50.112Z,70.00
2023-01-30T17:33:18.591Z,70.00
2023-01-30T17:35:46.058Z,70.00
2023-01-30T17:38:13.387Z,70.10
2023-01-30T17:40:41.637Z,70.10
2023-01-30T17:43:09.780Z,70.10
2023-01-30T17:45:37.011Z,70.10
2023-01-30T17:48:04.408Z,70.10
2023-01-30T17:50:32.567Z,70.20
2023-01-30T17:52:59.680Z,70.20
2023-01-30T17:55:26.834Z,70.10
2023-01-30T17:57:54.244Z,70.20
2023-01-30T18:00:23.000Z,70.20
2023-01-30T18:02:50.272Z,70.60
2023-01-30T18:05:17.483Z,71.00
2023-01-30T18:07:44.783Z,71.00
2023-01-30T18:10:17.121Z,71.10
2023-01-30T18:12:45.592Z,71.30
2023-01-30T18:15:18.039Z,71.30
2023-01-30T18:17:49.896Z,71.30
2023-01-30T18:20:20.047Z,71.40
2023-01-30T18:22:47.442Z,71.80
2023-01-30T18:25:15.373Z,71.40
2023-01-30T18:27:44.442Z,71.60
2023-01-30T18:30:17.593Z,71.60
2023-01-30T18:32:53.017Z,71.60
2023-01-30T18:35:22.421Z,71.60
2023-01-30T18:37:50.094Z,71.60
2023-01-30T18:40:19.114Z,71.60
2023-01-30T18:42:47.091Z,71.50
2023-01-30T18:45:14.462Z,71.50
2023-01-30T18:47:41.659Z,71.40
2023-01-30T18:50:09.471Z,71.40
2023-01-30T18:52:36.833Z,71.40
2023-01-30T18:55:04.236Z,71.20
2023-01-30T18:57:31.443Z,71.00
2023-01-30T18:59:58.759Z,71.00
2023-01-30T19:02:25.964Z,71.00
2023-01-30T19:04:53.007Z,70.90
2023-01-30T19:07:20.022Z,70.90
2023-01-30T19:09:47.617Z,70.80
2023-01-30T19:12:33.620Z,70.70
2023-01-30T19:15:01.501Z,70.70
2023-01-30T19:17:29.522Z,70.70
2023-01-30T19:19:57.385Z,70.60
2023-01-30T19:22:24.908Z,70.60
2023-01-30T19:24:52.267Z,70.60
2023-01-30T19:27:19.309Z,70.60
2023-01-30T19:29:47.102Z,70.60
2023-01-30T19:32:14.157Z,70.50
2023-01-30T19:34:41.254Z,70.60
2023-01-30T19:37:08.465Z,70.50
2023-01-30T19:39:35.514Z,70.40
2023-01-30T19:42:02.542Z,70.50
2023-01-30T19:44:29.679Z,70.40
2023-01-30T19:46:56.979Z,70.40
2023-01-30T19:49:23.998Z,70.30
2023-01-30T19:51:50.990Z,70.30
2023-01-30T19:54:18.921Z,70.20
2023-01-30T19:56:49.521Z,70.20
2023-01-30T19:59:16.790Z,70.20
2023-01-30T20:01:44.487Z,70.20
2023-01-30T20:04:21.332Z,70.10
2023-01-30T20:06:49.766Z,70.10
2023-01-30T20:09:17.673Z,70.00
2023-01-30T20:11:44.971Z,70.00
2023-01-30T20:14:15.174Z,69.90
2023-01-30T20:16:42.606Z,69.80
2023-01-30T20:19:15.960Z,70.00
2023-01-30T20:21:44.417Z,69.90
2023-01-30T20:24:17.511Z,69.80
2023-01-30T20:26:47.789Z,69.60
2023-01-30T20:29:17.531Z,69.60
2023-01-30T20:31:44.775Z,69.60
2023-01-30T20:34:14.255Z,69.60
2023-01-30T20:36:41.426Z,69.60
2023-01-30T20:39:08.734Z,69.40
2023-01-30T20:41:40.051Z,69.50
2023-01-30T20:44:11.610Z,69.60
2023-01-30T20:46:44.601Z,69.60
2023-01-30T20:49:22.731Z,69.60
2023-01-30T20:51:52.838Z,69.80
2023-01-30T20:54:22.831Z,69.80
2023-01-30T20:56:53.051Z,70.00
2023-01-30T20:59:27.350Z,70.00
2023-01-30T21:01:55.103Z,70.10
2023-01-30T21:04:24.461Z,70.10
2023-01-30T21:06:51.780Z,70.10
2023-01-30T21:09:22.362Z,70.30
2023-01-30T21:11:52.642Z,70.10
2023-01-30T21:14:19.858Z,70.20
2023-01-30T21:16:47.453Z,70.20
2023-01-30T21:19:16.530Z,70.20
2023-01-30T21:21:51.522Z,70.10
2023-01-30T21:24:26.320Z,70.20
2023-01-30T21:26:55.595Z,70.20
2023-01-30T21:29:25.132Z,70.20
2023-01-30T21:31:52.968Z,70.10
2023-01-30T21:34:20.107Z,70.00
2023-01-30T21:37:07.159Z,70.10
2023-01-30T21:39:52.683Z,70.10
2023-01-30T21:42:39.212Z,70.10
2023-01-30T21:45:07.135Z,70.10
2023-01-30T21:47:34.273Z,70.00
2023-01-30T21:50:01.484Z,70.10
2023-01-30T21:52:28.614Z,70.10
2023-01-30T21:54:57.118Z,70.10
2023-01-30T21:57:24.199Z,70.00
2023-01-30T21:59:51.406Z,69.90
2023-01-30T22:02:18.473Z,70.00
2023-01-30T22:04:45.496Z,69.90
2023-01-30T22:07:12.548Z,69.80
2023-01-30T22:09:39.815Z,69.70
2023-01-30T22:12:06.960Z,69.90
2023-01-30T22:14:36.326Z,69.70
2023-01-30T22:17:03.615Z,69.70
2023-01-30T22:19:35.585Z,69.70
2023-01-30T22:22:04.094Z,69.60
2023-01-30T22:24:31.651Z,69.60
2023-01-30T22:26:58.987Z,69.60
2023-01-30T22:29:26.031Z,69.60
2023-01-30T22:31:53.899Z,69.60
2023-01-30T22:34:21.572Z,69.60
2023-01-30T22:36:48.672Z,69.60
2023-01-30T22:39:15.682Z,69.60
2023-01-30T22:41:42.750Z,69.60
2023-01-30T22:44:10.841Z,69.60
2023-01-30T22:46:40.130Z,69.50
2023-01-30T22:49:08.897Z,69.60
2023-01-30T22:51:41.249Z,69.40
2023-01-30T22:54:15.868Z,69.50
2023-01-30T22:56:48.986Z,69.50
2023-01-30T22:59:16.239Z,69.70
2023-01-30T23:01:46.990Z,69.70
2023-01-30T23:04:20.651Z,69.60
2023-01-30T23:06:49.325Z,69.50
2023-01-30T23:09:22.116Z,69.50
2023-01-30T23:12:12.419Z,69.50
2023-01-30T23:14:40.057Z,69.50
2023-01-30T23:17:26.725Z,69.50
2023-01-30T23:19:55.368Z,69.50
2023-01-30T23:22:23.027Z,69.60
2023-01-30T23:24:51.280Z,69.70
2023-01-30T23:27:19.761Z,69.50
2023-01-30T23:29:46.850Z,69.60
2023-01-30T23:32:15.222Z,69.60
2023-01-30T23:34:42.473Z,69.70
2023-01-30T23:37:09.570Z,69.60
2023-01-30T23:39:36.843Z,69.70
2023-01-30T23:42:03.994Z,69.70
2023-01-30T23:44:31.018Z,69.80
2023-01-30T23:46:58.176Z,69.80
2023-01-30T23:49:25.256Z,69.80
2023-01-30T23:51:52.428Z,69.70
2023-01-30T23:54:19.500Z,69.80
2023-01-30T23:56:46.571Z,69.70
2023-01-30T23:59:13.664Z,69.80
